createdAt,value
2023-03-06T00:00:29.700Z,5.53
2023-03-06T00:02:57.241Z,4.90
2023-03-06T00:05:24.202Z,5.18
2023-03-06T00:07:50.922Z,5.05
2023-03-06T00:10:23.939Z,4.65
2023-03-06T00:12:55.387Z,4.50
2023-03-06T00:15:23.093Z,5.45
2023-03-06T00:17:49.853Z,5.60
2023-03-06T00:20:16.916Z,5.18
2023-03-06T00:22:44.026Z,6.15
2023-03-06T00:25:16.802Z,5.78
2023-03-06T00:30:16.577Z,4.53
2023-03-06T00:32:44.332Z,5.35
2023-03-06T00:35:12.691Z,4.97
2023-03-06T00:37:39.916Z,6.20
2023-03-06T00:40:09.241Z,5.80
2023-03-06T00:42:36.048Z,4.90
2023-03-06T00:45:02.842Z,5.45
2023-03-06T00:47:29.509Z,5.75
2023-03-06T00:49:56.112Z,6.65
2023-03-06T00:52:22.812Z,5.78
2023-03-06T00:54:49.531Z,5.18
2023-03-06T00:57:16.218Z,5.18
2023-03-06T00:59:43.067Z,5.28
2023-03-06T01:02:10.186Z,6.38
2023-03-06T01:04:36.923Z,5.88
2023-03-06T01:07:03.681Z,4.60
2023-03-06T01:09:30.304Z,5.97
2023-03-06T01:11:56.968Z,4.97
2023-03-06T01:14:23.691Z,6.22
2023-03-06T01:16:50.724Z,5.53
2023-03-06T01:19:17.843Z,4.93
2023-03-06T01:21:44.518Z,5.72
2023-03-06T01:24:11.236Z,5.20
2023-03-06T01:26:37.981Z,5.07
2023-03-06T01:29:04.718Z,6.18
2023-03-06T01:31:31.340Z,5.22
2023-03-06T01:33:58.041Z,4.97
2023-03-06T01:36:24.651Z,4.65
2023-03-06T01:38:51.278Z,5.05
2023-03-06T01:41:18.076Z,5.07
2023-03-06T01:43:46.331Z,6.03
2023-03-06T01:46:34.752Z,5.70
2023-03-06T01:49:28.334Z,5.38
2023-03-06T01:51:57.226Z,4.78
2023-03-06T01:54:28.314Z,6.03
2023-03-06T01:57:02.245Z,5.85
2023-03-06T01:59:30.226Z,5.65
2023-03-06T02:01:58.376Z,5.65
2023-03-06T02:04:25.252Z,5.53
2023-03-06T02:06:52.284Z,5.20
2023-03-06T02:09:19.013Z,5.78
2023-03-06T02:11:46.225Z,5.63
2023-03-06T02:14:15.545Z,7.53
2023-03-06T02:16:42.845Z,8.85
2023-03-06T02:19:23.897Z,10.10
2023-03-06T02:21:50.560Z,9.18
2023-03-06T02:24:36.645Z,8.55
2023-03-06T02:27:05.364Z,8.93
2023-03-06T02:29:33.258Z,9.80
2023-03-06T02:32:00.031Z,9.63
2023-03-06T02:34:26.644Z,10.40
2023-03-06T02:37:01.854Z,9.32
2023-03-06T02:39:31.116Z,10.25
2023-03-06T02:41:57.740Z,10.07
2023-03-06T02:46:51.468Z,8.63
2023-03-06T02:51:44.647Z,8.77
2023-03-06T02:54:11.291Z,10.88
2023-03-06T02:59:04.659Z,9.93
2023-03-06T03:01:31.302Z,9.25
2023-03-06T03:03:57.953Z,11.18
2023-03-06T03:06:24.576Z,10.50
2023-03-06T03:08:51.215Z,10.13
2023-03-06T03:11:17.942Z,11.05
2023-03-06T03:13:44.616Z,10.02
2023-03-06T03:16:16.794Z,10.02
2023-03-06T03:18:51.139Z,10.70
2023-03-06T03:21:18.091Z,9.40
2023-03-06T03:23:44.822Z,10.27
2023-03-06T03:26:16.358Z,9.57
2023-03-06T03:28:43.191Z,9.55
2023-03-06T03:31:10.847Z,9.63
2023-03-06T03:33:37.620Z,10.38
2023-03-06T03:36:06.405Z,10.57
2023-03-06T03:38:33.844Z,10.73
2023-03-06T03:41:04.600Z,10.73
2023-03-06T03:43:31.852Z,10.85
2023-03-06T03:45:58.557Z,11.07
2023-03-06T03:48:25.253Z,10.43
2023-03-06T03:50:52.038Z,12.63
2023-03-06T03:53:18.742Z,10.43
2023-03-06T03:55:48.349Z,10.07
2023-03-06T03:58:15.087Z,10.82
2023-03-06T04:00:41.691Z,11.05
2023-03-06T04:03:08.348Z,11.25
2023-03-06T04:05:35.000Z,11.95
2023-03-06T04:08:03.132Z,11.63
2023-03-06T04:10:29.913Z,11.68
2023-03-06T04:12:56.890Z,12.90
2023-03-06T04:15:23.640Z,10.70
2023-03-06T04:17:50.310Z,11.15
2023-03-06T04:20:17.170Z,11.30
2023-03-06T04:22:43.888Z,10.65
2023-03-06T04:25:10.622Z,11.07
2023-03-06T04:27:37.397Z,12.55
2023-03-06T04:30:05.682Z,11.85
2023-03-06T04:32:32.612Z,11.55
2023-03-06T04:34:59.356Z,12.07
2023-03-06T04:37:26.987Z,12.23
2023-03-06T04:39:53.699Z,11.57
2023-03-06T04:42:20.358Z,12.30
2023-03-06T04:44:47.015Z,11.55
2023-03-06T04:47:13.772Z,11.95
2023-03-06T04:49:40.424Z,11.63
2023-03-06T04:52:07.330Z,11.77
2023-03-06T04:54:33.947Z,12.85
2023-03-06T04:57:00.555Z,12.98
2023-03-06T04:59:27.208Z,13.43
2023-03-06T05:01:53.920Z,12.68
2023-03-06T05:04:20.536Z,13.15
2023-03-06T05:09:13.773Z,12.57
2023-03-06T05:11:40.510Z,12.57
2023-03-06T05:14:07.139Z,11.55
2023-03-06T05:16:33.839Z,13.63
2023-03-06T05:19:00.542Z,10.98
2023-03-06T05:21:27.231Z,13.80
2023-03-06T05:23:53.838Z,12.38
2023-03-06T05:26:20.500Z,12.40
2023-03-06T05:28:47.113Z,14.57
2023-03-06T05:31:13.857Z,12.55
2023-03-06T05:33:40.536Z,12.60
2023-03-06T05:36:09.375Z,13.30
2023-03-06T05:38:36.051Z,13.07
2023-03-06T05:41:02.684Z,13.18
2023-03-06T05:43:29.432Z,13.00
2023-03-06T05:46:04.828Z,12.35
2023-03-06T05:48:32.390Z,13.30
2023-03-06T05:51:00.488Z,14.18
2023-03-06T05:53:29.156Z,12.48
2023-03-06T05:56:00.793Z,14.57
2023-03-06T05:58:28.804Z,13.00
2023-03-06T06:00:55.470Z,12.30
2023-03-06T06:03:22.466Z,12.70
2023-03-06T06:05:49.595Z,13.70
2023-03-06T06:08:16.610Z,12.75
2023-03-06T06:10:43.266Z,11.43
2023-03-06T06:13:09.962Z,12.50
2023-03-06T06:15:38.339Z,14.27
2023-03-06T06:18:05.441Z,12.25
2023-03-06T06:20:32.238Z,13.13
2023-03-06T06:22:58.891Z,12.82
2023-03-06T06:25:25.540Z,12.80
2023-03-06T06:27:55.957Z,14.55
2023-03-06T06:30:22.868Z,14.20
2023-03-06T06:32:49.623Z,12.82
2023-03-06T06:35:16.337Z,12.73
2023-03-06T06:37:42.956Z,11.75
2023-03-06T06:40:10.217Z,13.70
2023-03-06T06:42:39.855Z,11.35
2023-03-06T06:45:08.453Z,13.35
2023-03-06T06:47:36.949Z,13.05
2023-03-06T06:50:04.211Z,12.20
2023-03-06T06:52:30.786Z,12.63
2023-03-06T06:54:57.688Z,11.88
2023-03-06T06:57:24.302Z,12.63
2023-03-06T06:59:53.617Z,12.25
2023-03-06T07:02:20.682Z,13.13
2023-03-06T07:05:02.612Z,12.07
2023-03-06T07:07:31.614Z,12.85
2023-03-06T07:09:58.244Z,12.73
2023-03-06T07:12:24.940Z,12.95
2023-03-06T07:14:51.654Z,11.50
2023-03-06T07:17:18.333Z,13.50
2023-03-06T07:19:44.962Z,12.70
2023-03-06T07:22:11.919Z,12.70
2023-03-06T07:24:38.553Z,12.55
2023-03-06T07:27:05.297Z,12.63
2023-03-06T07:29:33.986Z,13.63
2023-03-06T07:32:04.193Z,13.00
2023-03-06T07:34:30.903Z,13.73
2023-03-06T07:36:57.732Z,13.55
2023-03-06T07:39:24.412Z,11.50
2023-03-06T07:41:52.107Z,11.73
2023-03-06T07:44:18.826Z,13.32
2023-03-06T07:46:45.562Z,12.85
2023-03-06T07:49:12.182Z,12.75
2023-03-06T07:51:38.847Z,11.68
2023-03-06T07:54:05.618Z,10.85
2023-03-06T07:56:34.853Z,12.95
2023-03-06T07:59:01.669Z,12.00
2023-03-06T08:01:28.361Z,13.43
2023-03-06T08:03:55.457Z,12.52
2023-03-06T08:06:25.823Z,11.88
2023-03-06T08:08:54.099Z,11.02
2023-03-06T08:11:23.125Z,12.40
2023-03-06T08:13:52.543Z,13.00
2023-03-06T08:16:24.391Z,11.13
2023-03-06T08:18:51.511Z,11.90
2023-03-06T08:21:21.171Z,10.10
2023-03-06T08:23:47.991Z,11.40
2023-03-06T08:26:24.403Z,10.70
2023-03-06T08:28:52.508Z,11.77
2023-03-06T08:31:35.701Z,11.00
2023-03-06T08:34:06.079Z,11.30
2023-03-06T08:36:33.202Z,11.13
2023-03-06T08:39:00.530Z,11.20
2023-03-06T08:41:33.973Z,11.85
2023-03-06T08:44:09.903Z,11.68
2023-03-06T08:46:36.805Z,10.18
2023-03-06T08:49:04.239Z,11.30
2023-03-06T08:51:30.945Z,10.20
2023-03-06T08:53:58.718Z,10.43
2023-03-06T08:56:28.376Z,10.90
2023-03-06T08:58:56.436Z,10.70
2023-03-06T09:01:26.147Z,9.75
2023-03-06T09:03:58.294Z,9.50
2023-03-06T09:06:26.435Z,8.88
2023-03-06T09:08:54.283Z,8.15
2023-03-06T09:11:22.842Z,8.98
2023-03-06T09:13:49.544Z,9.52
2023-03-06T09:16:16.263Z,8.57
2023-03-06T09:18:42.949Z,8.57
2023-03-06T09:21:10.372Z,9.50
2023-03-06T09:23:39.424Z,9.05
2023-03-06T09:26:07.654Z,9.23
2023-03-06T09:28:39.042Z,9.45
2023-03-06T09:31:15.171Z,8.10
2023-03-06T09:33:42.354Z,8.65
2023-03-06T09:36:14.562Z,8.45
2023-03-06T09:38:41.365Z,7.75
2023-03-06T09:41:31.938Z,8.98
2023-03-06T09:44:08.674Z,8.23
2023-03-06T09:47:00.457Z,6.15
2023-03-06T09:52:43.464Z,6.10
2023-03-06T09:55:14.587Z,6.38
2023-03-06T09:58:13.523Z,5.95
2023-03-06T10:00:45.457Z,7.00
2023-03-06T10:03:15.411Z,5.22
2023-03-06T10:05:50.082Z,7.45
2023-03-06T10:08:37.515Z,6.57
2023-03-06T10:11:09.421Z,6.35
2023-03-06T10:13:40.845Z,6.25
2023-03-06T10:16:31.187Z,6.05
2023-03-06T10:19:03.767Z,6.57
2023-03-06T10:21:45.995Z,5.72
2023-03-06T10:24:29.670Z,5.53
2023-03-06T10:27:15.638Z,5.07
2023-03-06T10:29:56.406Z,4.35
2023-03-06T10:32:46.145Z,5.15
2023-03-06T10:35:25.627Z,4.30
2023-03-06T10:38:00.226Z,4.03
2023-03-06T10:40:40.866Z,4.18
2023-03-06T10:43:15.299Z,4.00
2023-03-06T10:45:51.211Z,3.78
2023-03-06T10:48:24.334Z,4.03
2023-03-06T10:50:52.812Z,3.97
2023-03-06T10:53:20.654Z,4.10
2023-03-06T10:55:58.810Z,3.95
2023-03-06T10:58:29.780Z,4.53
2023-03-06T11:01:20.783Z,4.20
2023-03-06T11:03:48.127Z,4.78
2023-03-06T11:06:30.117Z,4.00
2023-03-06T11:09:22.489Z,4.60
2023-03-06T11:11:50.701Z,5.32
2023-03-06T11:14:24.193Z,5.38
2023-03-06T11:16:57.875Z,6.50
2023-03-06T11:19:36.089Z,4.82
2023-03-06T11:22:06.348Z,4.20
2023-03-06T11:24:44.215Z,4.72
2023-03-06T11:27:22.251Z,4.80
2023-03-06T11:29:51.428Z,4.72
2023-03-06T11:32:33.078Z,3.83
2023-03-06T11:35:04.490Z,5.15
2023-03-06T11:37:53.885Z,3.90
2023-03-06T11:40:32.452Z,3.95
2023-03-06T11:43:32.377Z,3.88
2023-03-06T11:46:07.104Z,4.13
2023-03-06T11:48:35.821Z,3.78
2023-03-06T11:51:25.804Z,4.18
2023-03-06T11:53:53.921Z,3.33
2023-03-06T11:56:47.457Z,3.78
2023-03-06T11:59:26.007Z,3.50
2023-03-06T12:02:23.874Z,4.72
2023-03-06T12:04:56.038Z,4.72
2023-03-06T12:07:35.913Z,3.55
2023-03-06T12:10:24.572Z,3.83
2023-03-06T12:13:18.217Z,3.60
2023-03-06T12:16:02.785Z,4.22
2023-03-06T12:18:53.055Z,4.10
2023-03-06T12:21:44.287Z,4.20
2023-03-06T12:24:22.504Z,4.00
2023-03-06T12:27:18.129Z,4.10
2023-03-06T12:30:06.484Z,3.60
2023-03-06T12:32:58.129Z,3.53
2023-03-06T12:35:37.028Z,4.55
2023-03-06T12:38:44.843Z,3.72
2023-03-06T12:41:21.491Z,4.60
2023-03-06T12:44:28.280Z,4.75
2023-03-06T12:46:58.979Z,4.28
2023-03-06T12:49:33.165Z,3.97
2023-03-06T12:52:01.248Z,4.03
2023-03-06T12:54:31.195Z,3.90
2023-03-06T12:56:59.814Z,3.78
2023-03-06T12:59:38.756Z,3.63
2023-03-06T13:02:23.796Z,3.13
2023-03-06T13:05:18.581Z,4.45
2023-03-06T13:08:09.694Z,4.68
2023-03-06T13:10:38.742Z,4.20
2023-03-06T13:13:41.318Z,4.10
2023-03-06T13:16:29.900Z,4.03
2023-03-06T13:19:19.393Z,4.22
2023-03-06T13:21:55.073Z,3.92
2023-03-06T13:24:22.176Z,3.70
2023-03-06T13:26:56.596Z,4.50
2023-03-06T13:29:38.499Z,4.85
2023-03-06T13:32:10.607Z,4.57
2023-03-06T13:34:42.088Z,4.82
2023-03-06T13:37:22.967Z,4.65
2023-03-06T13:39:55.551Z,5.20
2023-03-06T13:42:28.292Z,4.00
2023-03-06T13:47:39.184Z,4.05
2023-03-06T13:50:24.658Z,3.25
2023-03-06T13:53:05.468Z,4.78
2023-03-06T13:55:52.476Z,3.72
2023-03-06T13:58:27.938Z,3.67
2023-03-06T14:01:06.234Z,3.95
2023-03-06T14:03:32.795Z,4.20
2023-03-06T14:05:59.565Z,4.05
2023-03-06T14:08:32.279Z,5.22
2023-03-06T14:11:04.493Z,5.07
2023-03-06T14:13:47.431Z,5.15
2023-03-06T14:16:24.746Z,4.93
2023-03-06T14:18:53.981Z,5.18
2023-03-06T14:21:48.082Z,5.47
2023-03-06T14:24:19.897Z,5.90
2023-03-06T14:26:50.596Z,5.50
2023-03-06T14:29:28.663Z,6.05
2023-03-06T14:31:57.589Z,5.75
2023-03-06T14:34:35.095Z,6.57
2023-03-06T14:37:05.416Z,6.13
2023-03-06T14:39:41.689Z,6.65
2023-03-06T14:42:20.660Z,6.93
2023-03-06T14:44:49.260Z,6.05
2023-03-06T14:47:36.436Z,7.28
2023-03-06T14:50:23.077Z,6.82
2023-03-06T14:52:52.952Z,6.43
2023-03-06T14:55:22.478Z,6.00
2023-03-06T14:58:01.141Z,6.20
2023-03-06T15:00:35.813Z,6.55
2023-03-06T15:03:07.706Z,6.03
2023-03-06T15:05:35.118Z,5.72
2023-03-06T15:08:06.641Z,5.38
2023-03-06T15:10:35.111Z,6.25
2023-03-06T15:13:21.130Z,6.05
2023-03-06T15:15:57.007Z,6.45
2023-03-06T15:18:35.544Z,5.93
2023-03-06T15:21:22.410Z,6.03
2023-03-06T15:23:51.688Z,5.30
2023-03-06T15:26:33.709Z,6.10
2023-03-06T15:29:10.235Z,6.43
2023-03-06T15:31:42.120Z,5.45
2023-03-06T15:34:11.585Z,5.72
2023-03-06T15:36:49.222Z,5.85
2023-03-06T15:39:39.047Z,6.55
2023-03-06T15:42:23.485Z,6.15
2023-03-06T15:44:53.184Z,5.90
2023-03-06T15:47:21.528Z,6.13
2023-03-06T15:49:53.132Z,5.03
2023-03-06T15:52:21.415Z,5.93
2023-03-06T15:54:48.663Z,5.35
2023-03-06T15:57:22.233Z,4.88
2023-03-06T15:59:49.530Z,4.38
2023-03-06T16:02:21.180Z,4.38
2023-03-06T16:04:49.002Z,4.70
2023-03-06T16:07:15.805Z,5.28
2023-03-06T16:09:43.509Z,4.93
2023-03-06T16:12:21.470Z,4.72
2023-03-06T16:14:49.830Z,4.85
2023-03-06T16:17:17.895Z,4.80
2023-03-06T16:19:45.237Z,4.75
2023-03-06T16:22:11.988Z,4.63
2023-03-06T16:24:38.661Z,4.78
2023-03-06T16:27:05.395Z,4.75
2023-03-06T16:29:32.232Z,4.72
2023-03-06T16:32:00.708Z,5.05
2023-03-06T16:34:27.743Z,4.90
2023-03-06T16:36:54.481Z,4.95
2023-03-06T16:39:23.653Z,4.55
2023-03-06T16:41:50.881Z,4.60
2023-03-06T16:44:17.837Z,4.65
2023-03-06T16:46:47.810Z,4.90
2023-03-06T16:49:19.990Z,4.35
2023-03-06T16:51:46.932Z,4.93
2023-03-06T16:54:13.929Z,5.25
2023-03-06T16:56:41.257Z,5.68
2023-03-06T16:59:08.768Z,4.88
2023-03-06T17:01:35.718Z,4.20
2023-03-06T17:04:03.400Z,4.30
2023-03-06T17:06:30.330Z,4.22
2023-03-06T17:09:00.259Z,4.55
2023-03-06T17:11:28.263Z,4.88
2023-03-06T17:13:55.333Z,4.40
2023-03-06T17:16:22.438Z,5.50
2023-03-06T17:18:49.632Z,6.00
2023-03-06T17:21:17.483Z,6.20
2023-03-06T17:23:44.666Z,5.60
2023-03-06T17:26:15.192Z,5.85
2023-03-06T17:28:42.273Z,5.38
2023-03-06T17:31:17.529Z,6.75
2023-03-06T17:33:44.922Z,5.90
2023-03-06T17:36:12.638Z,6.55
2023-03-06T17:38:39.806Z,5.82
2023-03-06T17:41:09.097Z,6.35
2023-03-06T17:43:37.213Z,6.30
2023-03-06T17:46:09.433Z,8.40
2023-03-06T17:48:36.441Z,9.27
2023-03-06T17:51:03.518Z,10.23
2023-03-06T17:53:30.208Z,7.95
2023-03-06T17:55:58.171Z,8.65
2023-03-06T17:58:25.736Z,9.35
2023-03-06T18:00:52.480Z,8.98
2023-03-06T18:03:19.264Z,11.00
2023-03-06T18:05:45.967Z,9.43
2023-03-06T18:08:13.241Z,9.88
2023-03-06T18:10:41.641Z,9.95
2023-03-06T18:13:09.419Z,10.95
2023-03-06T18:15:40.818Z,9.23
2023-03-06T18:18:08.781Z,9.07
2023-03-06T18:20:41.088Z,8.88
2023-03-06T18:23:07.855Z,7.30
2023-03-06T18:25:34.967Z,8.02
2023-03-06T18:28:01.801Z,7.53
2023-03-06T18:30:28.465Z,8.45
2023-03-06T18:32:55.305Z,9.43
2023-03-06T18:35:22.115Z,7.45
2023-03-06T18:37:48.831Z,8.88
2023-03-06T18:40:15.739Z,8.77
2023-03-06T18:42:42.416Z,9.32
2023-03-06T18:45:10.205Z,9.55
2023-03-06T18:47:36.977Z,8.48
2023-03-06T18:50:03.838Z,10.52
2023-03-06T18:52:30.511Z,8.60
2023-03-06T18:54:57.195Z,9.27
2023-03-06T18:57:23.799Z,8.48
2023-03-06T18:59:50.623Z,8.30
2023-03-06T19:02:17.289Z,8.45
2023-03-06T19:04:43.940Z,8.70
2023-03-06T19:07:12.458Z,8.73
2023-03-06T19:09:39.141Z,7.82
2023-03-06T19:12:06.313Z,9.98
2023-03-06T19:14:33.010Z,8.07
2023-03-06T19:16:59.624Z,8.55
2023-03-06T19:19:26.849Z,9.95
2023-03-06T19:21:53.969Z,9.23
2023-03-06T19:24:20.909Z,8.15
2023-03-06T19:26:47.746Z,8.18
2023-03-06T19:29:14.802Z,8.40
2023-03-06T19:31:42.446Z,9.70
2023-03-06T19:34:09.272Z,7.32
2023-03-06T19:36:38.959Z,8.50
2023-03-06T19:39:07.005Z,8.13
2023-03-06T19:41:33.805Z,8.88
2023-03-06T19:44:03.153Z,7.80
2023-03-06T19:46:29.945Z,8.40
2023-03-06T19:48:58.785Z,8.30
2023-03-06T19:51:27.246Z,8.88
2023-03-06T19:53:54.250Z,7.47
2023-03-06T19:56:23.884Z,8.40
2023-03-06T19:58:51.470Z,7.55
2023-03-06T20:01:20.872Z,6.82
2023-03-06T20:03:47.687Z,6.78
2023-03-06T20:06:17.378Z,8.10
2023-03-06T20:08:45.396Z,7.53
2023-03-06T20:11:20.142Z,7.63
2023-03-06T20:13:47.821Z,7.10
2023-03-06T20:16:15.264Z,7.78
2023-03-06T20:18:42.092Z,6.63
2023-03-06T20:21:08.900Z,7.97
2023-03-06T20:23:36.226Z,8.25
2023-03-06T20:26:12.209Z,7.32
2023-03-06T20:28:41.164Z,7.90
2023-03-06T20:31:09.189Z,8.10
2023-03-06T20:33:35.947Z,7.10
2023-03-06T20:36:02.806Z,7.75
2023-03-06T20:38:30.253Z,7.72
2023-03-06T20:40:59.050Z,8.25
2023-03-06T20:43:25.796Z,7.57
2023-03-06T20:46:04.128Z,7.72
2023-03-06T20:48:31.040Z,8.35
2023-03-06T20:51:06.582Z,8.82
2023-03-06T20:53:36.936Z,7.50
2023-03-06T20:56:10.946Z,8.57
2023-03-06T20:58:37.948Z,8.05
2023-03-06T21:01:05.745Z,8.45
2023-03-06T21:03:35.999Z,9.75
2023-03-06T21:06:02.675Z,9.38
2023-03-06T21:08:30.944Z,8.32
2023-03-06T21:10:57.519Z,10.25
2023-03-06T21:15:51.463Z,7.85
2023-03-06T21:18:18.402Z,8.30
2023-03-06T21:20:45.200Z,10.25
2023-03-06T21:23:11.869Z,9.48
2023-03-06T21:25:50.389Z,9.07
2023-03-06T21:28:17.944Z,9.27
2023-03-06T21:30:45.756Z,10.52
2023-03-06T21:33:13.657Z,10.40
2023-03-06T21:35:42.103Z,9.98
2023-03-06T21:38:09.184Z,9.57
2023-03-06T21:40:36.326Z,9.95
2023-03-06T21:43:04.075Z,10.40
2023-03-06T21:45:31.330Z,9.77
2023-03-06T21:48:00.170Z,10.18
2023-03-06T21:50:27.764Z,9.82
2023-03-06T21:52:57.027Z,10.35
2023-03-06T21:55:23.776Z,11.73
2023-03-06T21:57:52.857Z,11.27
2023-03-06T22:00:20.675Z,10.73
2023-03-06T22:02:47.398Z,10.77
2023-03-06T22:05:14.060Z,11.05
2023-03-06T22:07:40.917Z,11.57
2023-03-06T22:10:12.167Z,11.77
2023-03-06T22:12:40.159Z,12.38
2023-03-06T22:15:07.676Z,11.68
2023-03-06T22:17:34.383Z,10.98
2023-03-06T22:20:01.861Z,11.10
2023-03-06T22:22:28.517Z,11.68
2023-03-06T22:24:55.135Z,11.57
2023-03-06T22:27:22.217Z,10.63
2023-03-06T22:29:48.906Z,11.63
2023-03-06T22:32:15.921Z,11.93
2023-03-06T22:34:42.647Z,10.13
2023-03-06T22:37:09.883Z,11.00
2023-03-06T22:39:36.621Z,10.77
2023-03-06T22:42:03.509Z,10.75
2023-03-06T22:44:30.121Z,10.88
2023-03-06T22:46:57.756Z,11.32
2023-03-06T22:49:25.040Z,11.02
2023-03-06T22:51:51.636Z,11.38
2023-03-06T22:54:18.329Z,10.32
2023-03-06T22:56:44.953Z,9.52
2023-03-06T22:59:11.533Z,9.65
2023-03-06T23:01:38.325Z,9.95
2023-03-06T23:04:10.928Z,10.05
2023-03-06T23:06:40.065Z,9.25
2023-03-06T23:09:18.167Z,8.65
2023-03-06T23:11:44.820Z,8.93
2023-03-06T23:14:12.631Z,10.20
2023-03-06T23:16:39.676Z,7.65
2023-03-06T23:19:06.421Z,8.38
2023-03-06T23:21:34.381Z,9.57
2023-03-06T23:24:01.824Z,9.05
2023-03-06T23:26:29.786Z,9.15
2023-03-06T23:28:57.084Z,7.68
2023-03-06T23:31:29.614Z,8.00
2023-03-06T23:34:01.458Z,8.13
2023-03-06T23:36:29.063Z,8.95
2023-03-06T23:38:56.456Z,8.23
2023-03-06T23:41:23.688Z,9.02
2023-03-06T23:43:50.713Z,9.02
2023-03-06T23:46:17.552Z,7.35
2023-03-06T23:48:44.519Z,8.30
2023-03-06T23:51:17.643Z,7.90
2023-03-06T23:53:45.836Z,8.90
2023-03-06T23:56:12.951Z,8.57
2023-03-06T23:58:40.713Z,8.07
